Time;durP1;ratioP1;P1;durP2;ratioP2;P2;SDS_P1;SDS_P2;PMS_P1;PMS_P2;Temp;Humidity;BMP_temperature;BMP_pressure;BME280_temperature;BME280_humidity;BME280_pressure;Samples;Min_cycle;Max_cycle;Signal;HPM_P1;HPM_P2
2022/03/08 05:00:44;;;;;;;;;;;0.20;81.70;;;;;;5789720;23;20101;-66
2022/03/08 05:03:10;;;;;;;;;;;0.20;81.20;;;;;;4977125;28;20466;-65
2022/03/08 05:05:38;;;;;;;;;;;0.10;80.90;;;;;;4977190;28;20003;-66
2022/03/08 05:08:05;;;;;;;;;;;0.00;80.30;;;;;;4977908;28;20010;-67
2022/03/08 05:10:31;;;;;;;;;;;-0.10;79.80;;;;;;4982136;28;20018;-66
2022/03/08 05:12:59;;;;;;;;;;;-0.20;80.20;;;;;;4977741;28;20010;-67
2022/03/08 05:15:26;;;;;;;;;;;-0.20;80.80;;;;;;4977644;28;20006;-65
2022/03/08 05:17:54;;;;;;;;;;;-0.40;80.10;;;;;;4978118;28;20015;-67
2022/03/08 05:20:21;;;;;;;;;;;-0.30;80.70;;;;;;4979986;28;20006;-66
2022/03/08 05:22:47;;;;;;;;;;;-0.20;82.10;;;;;;4982003;28;20025;-67
2022/03/08 05:25:14;;;;;;;;;;;-0.10;82.20;;;;;;4977031;28;20094;-65
2022/03/08 05:27:41;;;;;;;;;;;0.00;82.70;;;;;;4976965;28;20205;-66
2022/03/08 05:30:08;;;;;;;;;;;0.10;82.80;;;;;;4977496;28;20085;-67
2022/03/08 05:32:35;;;;;;;;;;;0.20;81.80;;;;;;4976879;28;20336;-67
2022/03/08 05:35:03;;;;;;;;;;;0.30;81.50;;;;;;4978109;28;20430;-67
2022/03/08 05:37:29;;;;;;;;;;;0.30;81.00;;;;;;4977021;28;20488;-66
2022/03/08 05:39:56;;;;;;;;;;;0.30;80.80;;;;;;4976752;28;20382;-66
2022/03/08 05:42:22;;;;;;;;;;;0.40;81.60;;;;;;4978124;28;20018;-67
2022/03/08 05:44:49;;;;;;;;;;;0.40;81.50;;;;;;4978748;28;20010;-67
2022/03/08 05:47:15;;;;;;;;;;;0.50;83.10;;;;;;4981139;28;20114;-67
2022/03/08 05:49:42;;;;;;;;;;;0.50;80.50;;;;;;4981013;28;20007;-67
2022/03/08 05:52:10;;;;;;;;;;;0.40;79.60;;;;;;4977041;28;20019;-66
2022/03/08 05:54:36;;;;;;;;;;;0.40;79.10;;;;;;4977224;28;20024;-66
2022/03/08 05:57:03;;;;;;;;;;;0.30;79.20;;;;;;4977826;28;20015;-67
2022/03/08 05:59:29;;;;;;;;;;;0.20;78.90;;;;;;4976922;28;20003;-68
2022/03/08 06:01:56;;;;;;;;;;;0.10;79.00;;;;;;4976115;28;20342;-67
2022/03/08 06:04:23;;;;;;;;;;;0.00;79.60;;;;;;4976745;28;20351;-68
2022/03/08 06:06:50;;;;;;;;;;;0.00;79.60;;;;;;4976403;28;20454;-67
2022/03/08 06:09:18;;;;;;;;;;;-0.10;79.40;;;;;;4977087;28;20057;-68
2022/03/08 06:11:44;;;;;;;;;;;-0.10;78.40;;;;;;4976569;28;20023;-66
2022/03/08 06:14:11;;;;;;;;;;;-0.10;78.60;;;;;;4976601;28;20007;-68
2022/03/08 06:16:37;;;;;;;;;;;-0.10;79.30;;;;;;4976865;28;20014;-66
2022/03/08 06:19:04;;;;;;;;;;;-0.10;79.20;;;;;;4976531;28;20009;-66
2022/03/08 06:21:30;;;;;;;;;;;-0.10;78.80;;;;;;4976773;28;20018;-66
2022/03/08 06:23:57;;;;;;;;;;;0.00;79.10;;;;;;4976476;28;20007;-67
2022/03/08 06:26:26;;;;;;;;;;;0.00;79.40;;;;;;4976717;28;20060;-66
2022/03/08 06:28:52;;;;;;;;;;;0.10;80.50;;;;;;4976345;28;20056;-66
2022/03/08 06:31:19;;;;;;;;;;;-0.10;78.90;;;;;;4975910;28;20019;-66
2022/03/08 06:33:45;;;;;;;;;;;0.00;79.60;;;;;;4976369;28;20043;-67
2022/03/08 06:36:12;;;;;;;;;;;0.10;79.40;;;;;;4976305;28;20462;-67
2022/03/08 06:38:38;;;;;;;;;;;0.10;79.10;;;;;;4976067;28;20478;-66
2022/03/08 06:41:05;;;;;;;;;;;0.20;79.30;;;;;;4975651;28;20511;-66
2022/03/08 06:43:33;;;;;;;;;;;0.20;78.60;;;;;;4975760;28;20006;-66
2022/03/08 06:45:59;;;;;;;;;;;0.30;79.00;;;;;;4975513;28;20003;-66
2022/03/08 06:48:26;;;;;;;;;;;0.40;79.40;;;;;;4975688;28;20003;-67
2022/03/08 06:50:53;;;;;;;;;;;0.40;79.60;;;;;;4975370;28;20029;-67
2022/03/08 06:53:20;;;;;;;;;;;0.50;79.70;;;;;;4975684;28;20105;-67
2022/03/08 06:55:46;;;;;;;;;;;0.80;81.30;;;;;;4975409;28;20458;-67
2022/03/08 06:58:13;;;;;;;;;;;1.50;82.20;;;;;;4975710;28;20023;-66
2022/03/08 07:00:41;;;;;;;;;;;2.40;79.00;;;;;;4975810;28;20023;-66
2022/03/08 07:03:07;;;;;;;;;;;3.50;76.60;;;;;;4975624;28;19999;-66
2022/03/08 07:05:34;;;;;;;;;;;4.40;72.00;;;;;;4976174;28;20003;-67
2022/03/08 07:08:01;;;;;;;;;;;5.50;66.80;;;;;;4976176;28;20009;-66
2022/03/08 07:10:27;;;;;;;;;;;6.30;61.00;;;;;;4975770;28;20027;-66
2022/03/08 07:12:54;;;;;;;;;;;6.80;58.30;;;;;;4975453;28;20010;-68
2022/03/08 07:15:21;;;;;;;;;;;7.80;57.40;;;;;;4975302;28;20365;-67
2022/03/08 07:17:49;;;;;;;;;;;8.20;55.10;;;;;;4978816;28;20377;-67
2022/03/08 07:20:16;;;;;;;;;;;8.80;55.00;;;;;;4980403;28;20003;-67
2022/03/08 07:22:43;;;;;;;;;;;9.30;55.20;;;;;;4976749;28;20007;-67
2022/03/08 07:25:10;;;;;;;;;;;9.40;52.60;;;;;;4976355;28;20003;-68
2022/03/08 07:27:37;;;;;;;;;;;9.60;52.70;;;;;;4976107;28;20006;-68
2022/03/08 07:30:04;;;;;;;;;;;10.40;50.20;;;;;;4976134;28;20057;-69
2022/03/08 07:32:30;;;;;;;;;;;10.30;47.80;;;;;;4975342;28;20019;-67
2022/03/08 07:34:58;;;;;;;;;;;10.50;47.80;;;;;;4975888;28;20003;-67
2022/03/08 07:37:25;;;;;;;;;;;10.80;50.50;;;;;;4975763;28;20042;-67
2022/03/08 07:39:52;;;;;;;;;;;11.00;47.50;;;;;;4975892;28;20003;-68
2022/03/08 07:42:19;;;;;;;;;;;10.80;45.90;;;;;;4976557;28;20073;-67
2022/03/08 07:44:45;;;;;;;;;;;10.30;46.40;;;;;;4979482;28;20003;-67
2022/03/08 07:47:12;;;;;;;;;;;10.10;47.00;;;;;;4979168;28;20007;-67
2022/03/08 07:49:39;;;;;;;;;;;10.30;46.80;;;;;;4979419;28;20025;-68
2022/03/08 07:52:07;;;;;;;;;;;10.80;47.00;;;;;;4978946;28;20023;-67
2022/03/08 07:54:33;;;;;;;;;;;11.40;45.70;;;;;;4979148;28;20011;-68
2022/03/08 07:57:00;;;;;;;;;;;12.10;45.50;;;;;;4978897;28;20003;-67
2022/03/08 07:59:26;;;;;;;;;;;12.30;44.00;;;;;;4982428;28;20003;-67
2022/03/08 08:01:53;;;;;;;;;;;12.00;44.60;;;;;;4984399;28;20051;-67
2022/03/08 08:04:20;;;;;;;;;;;12.90;44.00;;;;;;4979655;28;20010;-67
2022/03/08 08:06:46;;;;;;;;;;;12.70;43.50;;;;;;4979083;28;20010;-67
2022/03/08 08:09:14;;;;;;;;;;;11.50;43.50;;;;;;4978567;28;20007;-67
2022/03/08 08:11:41;;;;;;;;;;;11.50;44.80;;;;;;4978475;28;20019;-67
2022/03/08 08:14:07;;;;;;;;;;;11.30;45.00;;;;;;4978482;28;20007;-68
2022/03/08 08:16:34;;;;;;;;;;;12.50;44.80;;;;;;4978735;28;20003;-68
2022/03/08 08:19:01;;;;;;;;;;;13.00;44.10;;;;;;4978153;28;20022;-66
2022/03/08 08:21:27;;;;;;;;;;;13.00;43.80;;;;;;4978196;28;20018;-68
2022/03/08 08:23:54;;;;;;;;;;;13.60;44.10;;;;;;4978182;28;20026;-68
2022/03/08 08:26:22;;;;;;;;;;;13.70;43.30;;;;;;4978591;28;20481;-67
2022/03/08 08:28:49;;;;;;;;;;;13.30;43.70;;;;;;4977491;28;20003;-68
2022/03/08 08:31:15;;;;;;;;;;;13.60;43.70;;;;;;4977852;28;20074;-66
2022/03/08 08:33:42;;;;;;;;;;;13.90;42.90;;;;;;4977997;28;20149;-67
2022/03/08 08:36:09;;;;;;;;;;;14.80;42.40;;;;;;4977831;28;20485;-66
2022/03/08 08:38:35;;;;;;;;;;;14.90;41.80;;;;;;4978108;28;20022;-67
2022/03/08 08:41:02;;;;;;;;;;;15.90;40.80;;;;;;4977801;28;20023;-67
2022/03/08 08:43:30;;;;;;;;;;;16.20;41.20;;;;;;4978121;28;20002;-67
2022/03/08 08:45:56;;;;;;;;;;;17.00;40.20;;;;;;4978043;28;20007;-68
2022/03/08 08:48:23;;;;;;;;;;;16.90;40.30;;;;;;4977940;28;20377;-67
2022/03/08 08:50:50;;;;;;;;;;;17.30;38.60;;;;;;4979135;28;20025;-68
2022/03/08 08:53:17;;;;;;;;;;;17.20;39.60;;;;;;4977869;28;20010;-69
2022/03/08 08:55:43;;;;;;;;;;;17.50;39.60;;;;;;4977442;28;20377;-68
2022/03/08 08:58:10;;;;;;;;;;;17.30;38.70;;;;;;4978205;28;20378;-70
2022/03/08 09:00:38;;;;;;;;;;;17.50;39.50;;;;;;4977484;28;20046;-69
2022/03/08 09:03:06;;;;;;;;;;;17.60;38.10;;;;;;4978568;28;20346;-67
2022/03/08 09:05:32;;;;;;;;;;;17.80;38.10;;;;;;4977197;28;20050;-68
2022/03/08 09:07:59;;;;;;;;;;;17.90;38.70;;;;;;4977196;28;20458;-68
2022/03/08 09:10:25;;;;;;;;;;;18.20;38.80;;;;;;4977355;28;20087;-69
2022/03/08 09:12:53;;;;;;;;;;;18.50;37.60;;;;;;4977733;28;20010;-67
2022/03/08 09:15:20;;;;;;;;;;;18.70;37.60;;;;;;4977213;28;20003;-66
2022/03/08 09:17:48;;;;;;;;;;;19.10;37.20;;;;;;4977037;28;20493;-67
2022/03/08 09:20:15;;;;;;;;;;;18.80;37.50;;;;;;4977860;28;20003;-67
2022/03/08 09:22:42;;;;;;;;;;;18.80;36.50;;;;;;4977748;28;20090;-68
2022/03/08 09:25:08;;;;;;;;;;;18.70;36.30;;;;;;4977545;28;20010;-68
2022/03/08 09:27:35;;;;;;;;;;;18.20;36.40;;;;;;4977122;28;20481;-70
2022/03/08 09:30:02;;;;;;;;;;;17.30;36.60;;;;;;4977284;28;20382;-68
2022/03/08 09:32:29;;;;;;;;;;;16.80;36.90;;;;;;4977050;28;20026;-68
2022/03/08 09:34:56;;;;;;;;;;;16.20;37.80;;;;;;4978659;28;20002;-68
2022/03/08 09:37:23;;;;;;;;;;;15.90;37.80;;;;;;4978162;28;20006;-69
2022/03/08 09:39:50;;;;;;;;;;;16.00;37.80;;;;;;4977789;28;20474;-68
2022/03/08 09:42:17;;;;;;;;;;;16.20;37.90;;;;;;4978565;28;20023;-68
2022/03/08 09:44:43;;;;;;;;;;;16.50;38.50;;;;;;4978184;28;20003;-67
2022/03/08 09:47:10;;;;;;;;;;;16.60;37.10;;;;;;4977999;28;20010;-68
2022/03/08 09:49:37;;;;;;;;;;;17.10;37.30;;;;;;4978153;28;19999;-69
2022/03/08 09:52:05;;;;;;;;;;;17.50;36.10;;;;;;4977741;28;20025;-68
2022/03/08 09:54:32;;;;;;;;;;;17.80;35.80;;;;;;4977565;28;20462;-67
2022/03/08 09:56:58;;;;;;;;;;;18.00;39.90;;;;;;4980085;28;20010;-67
2022/03/08 09:59:29;;;;;;;;;;;18.50;36.90;;;;;;4980252;28;20015;-67
2022/03/08 10:01:56;;;;;;;;;;;17.50;36.00;;;;;;4991274;28;20041;-68
2022/03/08 10:04:22;;;;;;;;;;;17.10;35.10;;;;;;4979074;28;20006;-66
2022/03/08 10:06:50;;;;;;;;;;;17.20;37.80;;;;;;4978166;28;20110;-68
2022/03/08 10:09:19;;;;;;;;;;;17.10;35.10;;;;;;4978718;28;20009;-67
2022/03/08 10:11:50;;;;;;;;;;;16.80;35.80;;;;;;4977969;28;20023;-67
2022/03/08 10:14:31;;;;;;;;;;;16.60;35.00;;;;;;4978106;28;20375;-66
2022/03/08 10:16:57;;;;;;;;;;;17.20;37.90;;;;;;4978074;28;19999;-66
2022/03/08 10:19:24;;;;;;;;;;;17.60;35.90;;;;;;4983118;28;20022;-67
2022/03/08 10:21:54;;;;;;;;;;;17.70;36.50;;;;;;4981941;28;20019;-67
2022/03/08 10:24:23;;;;;;;;;;;18.20;34.60;;;;;;4977676;28;20475;-66
2022/03/08 10:26:50;;;;;;;;;;;18.10;36.00;;;;;;4977486;28;20003;-66
2022/03/08 10:29:24;;;;;;;;;;;18.60;36.20;;;;;;4978096;28;20010;-66
2022/03/08 10:31:51;;;;;;;;;;;18.60;33.90;;;;;;4976908;28;20019;-67
2022/03/08 10:34:17;;;;;;;;;;;19.00;37.90;;;;;;4976580;28;20006;-67
2022/03/08 10:37:00;;;;;;;;;;;19.00;36.80;;;;;;4977627;28;20057;-66
2022/03/08 10:39:28;;;;;;;;;;;19.30;35.80;;;;;;4977043;28;20022;-67
2022/03/08 10:41:56;;;;;;;;;;;19.90;33.60;;;;;;4976612;28;20025;-66
2022/03/08 10:44:37;;;;;;;;;;;19.90;32.40;;;;;;4977041;28;20097;-66
2022/03/08 10:47:06;;;;;;;;;;;18.90;31.70;;;;;;4976933;28;20009;-65
2022/03/08 10:49:33;;;;;;;;;;;18.60;32.60;;;;;;4976859;28;20054;-68
2022/03/08 10:52:01;;;;;;;;;;;18.80;33.50;;;;;;4976520;28;20025;-68
2022/03/08 10:54:29;;;;;;;;;;;18.60;32.60;;;;;;4977079;28;20450;-66
2022/03/08 10:56:55;;;;;;;;;;;18.00;31.80;;;;;;4982675;28;20350;-67
2022/03/08 10:59:22;;;;;;;;;;;17.30;32.40;;;;;;4976425;28;20014;-66
2022/03/08 11:01:49;;;;;;;;;;;17.00;31.60;;;;;;4977891;28;20022;-68
2022/03/08 11:04:19;;;;;;;;;;;16.90;31.90;;;;;;4976982;28;20007;-67
2022/03/08 11:06:47;;;;;;;;;;;16.70;32.30;;;;;;4976785;28;20010;-67
2022/03/08 11:09:14;;;;;;;;;;;16.60;33.60;;;;;;4976499;28;20394;-67
2022/03/08 11:11:43;;;;;;;;;;;16.70;33.30;;;;;;4976346;28;20490;-67
2022/03/08 11:14:10;;;;;;;;;;;16.20;33.60;;;;;;4976672;28;20003;-68
2022/03/08 11:16:36;;;;;;;;;;;15.90;32.70;;;;;;4976316;28;20003;-69
2022/03/08 11:19:05;;;;;;;;;;;15.10;33.10;;;;;;4979749;28;20027;-69
2022/03/08 11:21:33;;;;;;;;;;;14.20;33.90;;;;;;4979322;28;20466;-68
2022/03/08 11:24:01;;;;;;;;;;;13.90;35.00;;;;;;4979453;28;20411;-68
2022/03/08 11:26:28;;;;;;;;;;;13.60;35.10;;;;;;4979352;28;20002;-67
2022/03/08 11:28:56;;;;;;;;;;;13.50;37.00;;;;;;4979823;28;20002;-68
2022/03/08 11:31:25;;;;;;;;;;;13.40;36.70;;;;;;4981253;28;20041;-69
2022/03/08 11:33:58;;;;;;;;;;;13.20;36.10;;;;;;4981171;28;20003;-68
2022/03/08 11:36:27;;;;;;;;;;;13.00;35.80;;;;;;4981268;28;20007;-68
2022/03/08 11:39:21;;;;;;;;;;;13.00;37.40;;;;;;4981110;28;20014;-67
2022/03/08 11:41:49;;;;;;;;;;;13.20;40.10;;;;;;4947364;28;20026;-69
2022/03/08 11:44:28;;;;;;;;;;;13.40;38.30;;;;;;4981052;28;20003;-68
2022/03/08 11:47:10;;;;;;;;;;;13.50;36.40;;;;;;4981321;28;20003;-68
2022/03/08 11:49:55;;;;;;;;;;;13.50;36.90;;;;;;4982662;28;20090;-68
2022/03/08 11:52:26;;;;;;;;;;;13.50;36.50;;;;;;4992013;28;20025;-68
2022/03/08 11:54:53;;;;;;;;;;;13.30;35.50;;;;;;4991137;28;20014;-68
2022/03/08 11:57:39;;;;;;;;;;;13.40;35.30;;;;;;4991485;28;20010;-68
2022/03/08 12:00:17;;;;;;;;;;;13.40;35.70;;;;;;4991181;28;20462;-68
2022/03/08 12:02:44;;;;;;;;;;;13.40;35.60;;;;;;4986292;28;20398;-68
2022/03/08 12:05:34;;;;;;;;;;;13.50;37.50;;;;;;4988245;28;20002;-68
2022/03/08 12:08:16;;;;;;;;;;;13.60;35.70;;;;;;4990083;28;20009;-68
2022/03/08 12:10:43;;;;;;;;;;;13.60;35.90;;;;;;4988236;28;20025;-68
2022/03/08 12:13:12;;;;;;;;;;;13.70;35.30;;;;;;4988970;28;20003;-68
2022/03/08 12:16:09;;;;;;;;;;;13.70;36.00;;;;;;4985589;28;20003;-68
2022/03/08 12:18:37;;;;;;;;;;;13.50;35.00;;;;;;4978966;28;20050;-67
2022/03/08 12:21:19;;;;;;;;;;;13.10;36.00;;;;;;4979628;28;20374;-68
2022/03/08 12:23:47;;;;;;;;;;;13.10;36.70;;;;;;4979017;28;20122;-67
2022/03/08 12:26:22;;;;;;;;;;;13.30;37.40;;;;;;4983034;28;19999;-68
2022/03/08 12:29:08;;;;;;;;;;;13.30;36.70;;;;;;4980488;28;20097;-68
2022/03/08 12:31:55;;;;;;;;;;;13.20;35.90;;;;;;4986936;28;20025;-66
2022/03/08 12:34:36;;;;;;;;;;;13.10;37.20;;;;;;4988202;28;20026;-67
2022/03/08 12:37:03;;;;;;;;;;;13.10;38.20;;;;;;4989566;28;20047;-66
2022/03/08 12:39:49;;;;;;;;;;;13.10;38.30;;;;;;4988730;28;20019;-68
2022/03/08 12:42:17;;;;;;;;;;;13.20;36.70;;;;;;4980233;28;20382;-68
2022/03/08 12:44:49;;;;;;;;;;;13.40;37.90;;;;;;4979923;28;20007;-67
2022/03/08 12:47:16;;;;;;;;;;;13.50;38.00;;;;;;4979397;28;19999;-69
2022/03/08 12:49:45;;;;;;;;;;;13.50;38.80;;;;;;4979364;28;20026;-69
2022/03/08 12:52:12;;;;;;;;;;;13.30;35.30;;;;;;4979121;28;20025;-69
2022/03/08 12:54:40;;;;;;;;;;;13.40;36.30;;;;;;4979055;28;20009;-69
2022/03/08 12:57:07;;;;;;;;;;;13.40;36.00;;;;;;4978905;28;20010;-69
2022/03/08 12:59:41;;;;;;;;;;;13.40;36.60;;;;;;4978994;28;20031;-69
2022/03/08 13:02:08;;;;;;;;;;;13.00;37.20;;;;;;4978761;28;20490;-69
2022/03/08 13:04:35;;;;;;;;;;;13.10;37.50;;;;;;4979876;28;20006;-69
2022/03/08 13:07:10;;;;;;;;;;;13.10;38.10;;;;;;4979075;28;20016;-69
2022/03/08 13:09:50;;;;;;;;;;;13.10;36.60;;;;;;4978733;28;20009;-69
2022/03/08 13:12:17;;;;;;;;;;;13.20;36.30;;;;;;4983787;28;20018;-69
2022/03/08 13:15:00;;;;;;;;;;;13.20;36.10;;;;;;4980131;28;20003;-68
2022/03/08 13:17:29;;;;;;;;;;;13.30;36.50;;;;;;4979396;28;20375;-69
2022/03/08 13:19:56;;;;;;;;;;;13.40;36.20;;;;;;4982757;28;20022;-69
2022/03/08 13:22:24;;;;;;;;;;;13.30;35.40;;;;;;4982246;28;20025;-68
2022/03/08 13:25:06;;;;;;;;;;;13.30;37.00;;;;;;4978965;28;19999;-68
2022/03/08 13:27:48;;;;;;;;;;;13.30;35.80;;;;;;4978474;28;20071;-69
2022/03/08 13:30:17;;;;;;;;;;;13.30;35.50;;;;;;4979613;28;20069;-69
2022/03/08 13:32:44;;;;;;;;;;;13.60;37.00;;;;;;4978583;28;20011;-69
2022/03/08 13:35:11;;;;;;;;;;;13.30;36.20;;;;;;4979566;28;20033;-68
2022/03/08 13:37:49;;;;;;;;;;;13.50;38.00;;;;;;4978043;28;20006;-68
2022/03/08 13:40:25;;;;;;;;;;;13.50;35.80;;;;;;4977511;28;20037;-69
2022/03/08 13:42:52;;;;;;;;;;;13.10;35.60;;;;;;4978464;28;20003;-69
2022/03/08 13:45:19;;;;;;;;;;;13.10;36.20;;;;;;4977155;28;20477;-69
2022/03/08 13:47:45;;;;;;;;;;;13.10;35.10;;;;;;4977423;28;20002;-68
2022/03/08 13:50:12;;;;;;;;;;;13.20;36.40;;;;;;4977758;28;19999;-69
2022/03/08 13:52:49;;;;;;;;;;;13.10;36.40;;;;;;4978006;28;20019;-67
2022/03/08 13:55:17;;;;;;;;;;;13.20;41.60;;;;;;4977115;28;20032;-66
2022/03/08 13:57:52;;;;;;;;;;;13.30;42.10;;;;;;4977687;28;20362;-67
2022/03/08 14:00:18;;;;;;;;;;;13.40;36.90;;;;;;4977102;28;20018;-67
2022/03/08 14:02:45;;;;;;;;;;;13.40;36.90;;;;;;4977137;28;19998;-67
2022/03/08 14:05:12;;;;;;;;;;;13.40;36.40;;;;;;4977057;28;20002;-68
2022/03/08 14:07:38;;;;;;;;;;;13.20;37.00;;;;;;4977671;28;20010;-67
2022/03/08 14:10:06;;;;;;;;;;;13.00;36.00;;;;;;4977764;28;20002;-69
2022/03/08 14:12:43;;;;;;;;;;;13.30;41.10;;;;;;4977513;28;20089;-68
2022/03/08 14:15:10;;;;;;;;;;;13.50;36.90;;;;;;4977727;28;20038;-66
2022/03/08 14:17:36;;;;;;;;;;;13.40;36.20;;;;;;4977526;28;20386;-67
2022/03/08 14:20:13;;;;;;;;;;;12.90;34.90;;;;;;4977628;28;20122;-67
2022/03/08 14:22:54;;;;;;;;;;;12.60;34.80;;;;;;4977246;28;20014;-67
2022/03/08 14:25:21;;;;;;;;;;;12.40;36.20;;;;;;4976914;28;20002;-68
2022/03/08 14:27:52;;;;;;;;;;;12.50;37.60;;;;;;4977240;28;20003;-67
2022/03/08 14:30:22;;;;;;;;;;;12.60;37.20;;;;;;4977213;28;20010;-68
2022/03/08 14:32:48;;;;;;;;;;;12.80;42.20;;;;;;4976355;28;20003;-68
2022/03/08 14:35:16;;;;;;;;;;;12.80;36.90;;;;;;4976806;28;20007;-67
2022/03/08 14:37:43;;;;;;;;;;;13.00;38.90;;;;;;4977246;28;20009;-68
2022/03/08 14:40:10;;;;;;;;;;;13.00;35.80;;;;;;4976761;28;20015;-67
2022/03/08 14:42:37;;;;;;;;;;;12.90;37.20;;;;;;4977722;28;20018;-67
2022/03/08 14:45:09;;;;;;;;;;;13.00;36.90;;;;;;4978069;28;20026;-67
2022/03/08 14:47:38;;;;;;;;;;;13.00;38.70;;;;;;4980123;28;20010;-67
2022/03/08 14:50:06;;;;;;;;;;;13.00;38.60;;;;;;4981706;28;20065;-67
2022/03/08 14:52:33;;;;;;;;;;;13.10;36.50;;;;;;4981231;28;20470;-66
2022/03/08 14:55:01;;;;;;;;;;;12.70;34.60;;;;;;4982339;28;20002;-68
2022/03/08 14:57:28;;;;;;;;;;;12.30;35.20;;;;;;4980543;28;20010;-67
2022/03/08 14:59:56;;;;;;;;;;;12.10;36.70;;;;;;4981198;28;20019;-67
2022/03/08 15:02:24;;;;;;;;;;;12.20;38.90;;;;;;4981181;28;20054;-66
2022/03/08 15:04:51;;;;;;;;;;;12.30;37.20;;;;;;4981168;28;20462;-66
2022/03/08 15:07:18;;;;;;;;;;;12.30;38.30;;;;;;4980481;28;20002;-67
2022/03/08 15:09:45;;;;;;;;;;;12.30;37.60;;;;;;4981216;28;20014;-67
2022/03/08 15:12:12;;;;;;;;;;;12.30;41.00;;;;;;4980403;28;20022;-67
2022/03/08 15:14:39;;;;;;;;;;;12.20;36.50;;;;;;4980294;28;20073;-66
2022/03/08 15:17:06;;;;;;;;;;;12.10;36.60;;;;;;4979968;28;20355;-67
2022/03/08 15:19:34;;;;;;;;;;;11.80;36.70;;;;;;4980372;28;20027;-67
2022/03/08 15:22:00;;;;;;;;;;;11.70;36.80;;;;;;4980452;28;20026;-67
2022/03/08 15:24:27;;;;;;;;;;;11.80;39.40;;;;;;4980770;28;20003;-67
2022/03/08 15:26:54;;;;;;;;;;;11.80;37.80;;;;;;4980463;28;20003;-67
2022/03/08 15:29:22;;;;;;;;;;;11.70;38.30;;;;;;4979795;28;20362;-67
2022/03/08 15:31:49;;;;;;;;;;;11.60;36.90;;;;;;4980866;28;20019;-68
2022/03/08 15:34:15;;;;;;;;;;;11.60;39.00;;;;;;4981475;28;20009;-68
2022/03/08 15:36:43;;;;;;;;;;;11.70;38.80;;;;;;4988257;28;20003;-67
2022/03/08 15:39:10;;;;;;;;;;;11.80;41.50;;;;;;4989725;28;20002;-67
2022/03/08 15:41:37;;;;;;;;;;;12.00;40.00;;;;;;4988537;28;20029;-67
2022/03/08 15:44:04;;;;;;;;;;;12.00;38.00;;;;;;4984732;28;20003;-69
2022/03/08 15:46:30;;;;;;;;;;;12.10;41.30;;;;;;4989016;28;20013;-68
2022/03/08 15:48:57;;;;;;;;;;;12.00;39.40;;;;;;4988487;28;20370;-69
2022/03/08 15:51:25;;;;;;;;;;;11.70;37.00;;;;;;4989051;28;20025;-68
2022/03/08 15:53:53;;;;;;;;;;;11.40;36.60;;;;;;4984825;28;20027;-69
2022/03/08 15:56:20;;;;;;;;;;;11.10;36.60;;;;;;4982104;28;20009;-69
2022/03/08 15:58:48;;;;;;;;;;;10.80;36.90;;;;;;4981966;28;20057;-68
2022/03/08 16:01:14;;;;;;;;;;;10.70;37.00;;;;;;4979469;28;20026;-68
2022/03/08 16:03:41;;;;;;;;;;;10.50;37.50;;;;;;4979996;28;20003;-68
2022/03/08 16:06:08;;;;;;;;;;;10.30;37.30;;;;;;4980471;28;20010;-68
2022/03/08 16:08:35;;;;;;;;;;;10.30;39.60;;;;;;4979061;28;20003;-69
2022/03/08 16:11:04;;;;;;;;;;;10.60;41.40;;;;;;4978750;28;20430;-69
2022/03/08 16:13:30;;;;;;;;;;;10.50;37.20;;;;;;4978778;28;20010;-69
2022/03/08 16:15:57;;;;;;;;;;;10.50;38.10;;;;;;4978418;28;20002;-69
2022/03/08 16:18:24;;;;;;;;;;;10.50;38.10;;;;;;4978572;28;19999;-68
2022/03/08 16:20:51;;;;;;;;;;;10.40;38.10;;;;;;4978902;28;20030;-68
2022/03/08 16:23:17;;;;;;;;;;;10.20;36.40;;;;;;4979982;28;20006;-70
2022/03/08 16:25:44;;;;;;;;;;;10.10;36.90;;;;;;4979510;28;20054;-69
2022/03/08 16:28:12;;;;;;;;;;;10.00;36.90;;;;;;4979174;28;20003;-69
2022/03/08 16:30:40;;;;;;;;;;;9.90;38.10;;;;;;4986248;28;20019;-69
2022/03/08 16:33:06;;;;;;;;;;;9.80;38.20;;;;;;4978952;28;20046;-69
2022/03/08 16:35:33;;;;;;;;;;;9.70;38.40;;;;;;4978648;28;20033;-69
2022/03/08 16:38:00;;;;;;;;;;;9.60;38.80;;;;;;4979892;28;20089;-69
2022/03/08 16:40:27;;;;;;;;;;;9.50;39.00;;;;;;4980679;28;20018;-69
2022/03/08 16:42:54;;;;;;;;;;;9.40;39.30;;;;;;4996503;28;20002;-67
2022/03/08 16:45:22;;;;;;;;;;;9.40;39.80;;;;;;4996658;28;20003;-69
2022/03/08 16:47:49;;;;;;;;;;;9.20;40.30;;;;;;4989344;28;20002;-69
2022/03/08 16:50:16;;;;;;;;;;;9.20;40.90;;;;;;4981384;28;20071;-70
2022/03/08 16:52:43;;;;;;;;;;;9.10;40.80;;;;;;4981892;28;20009;-69
2022/03/08 16:55:10;;;;;;;;;;;9.10;41.00;;;;;;4980765;28;20447;-69
2022/03/08 16:57:37;;;;;;;;;;;9.00;41.20;;;;;;4980011;28;20058;-70
2022/03/08 17:00:05;;;;;;;;;;;8.90;41.10;;;;;;4979986;28;20081;-69
2022/03/08 17:02:33;;;;;;;;;;;8.90;41.50;;;;;;4977172;28;20030;-69
2022/03/08 17:05:00;;;;;;;;;;;8.90;41.70;;;;;;4977233;28;20003;-68
2022/03/08 17:07:27;;;;;;;;;;;8.80;41.50;;;;;;4978063;28;20097;-68
2022/03/08 17:09:54;;;;;;;;;;;8.70;41.60;;;;;;4977297;28;20003;-68
2022/03/08 17:12:20;;;;;;;;;;;8.70;42.00;;;;;;4977081;28;20026;-68
2022/03/08 17:14:47;;;;;;;;;;;8.70;42.30;;;;;;4977565;28;20002;-68
2022/03/08 17:17:13;;;;;;;;;;;8.70;42.30;;;;;;4977689;28;20003;-68
2022/03/08 17:19:41;;;;;;;;;;;8.70;42.40;;;;;;4976505;28;20002;-68
2022/03/08 17:22:08;;;;;;;;;;;8.70;42.60;;;;;;4976921;28;20389;-68
2022/03/08 17:24:34;;;;;;;;;;;8.70;42.60;;;;;;4977316;28;20007;-69
2022/03/08 17:27:01;;;;;;;;;;;8.60;42.80;;;;;;4976434;28;20366;-68
2022/03/08 17:29:28;;;;;;;;;;;8.50;42.90;;;;;;4976746;28;20378;-67
2022/03/08 17:31:54;;;;;;;;;;;8.50;43.00;;;;;;4976332;28;20532;-69
2022/03/08 17:34:21;;;;;;;;;;;8.50;43.40;;;;;;4977348;28;20007;-69
2022/03/08 17:36:49;;;;;;;;;;;8.40;43.40;;;;;;4976430;28;20003;-68
2022/03/08 17:39:15;;;;;;;;;;;8.40;43.70;;;;;;4976551;28;20010;-69
2022/03/08 17:41:42;;;;;;;;;;;8.30;43.40;;;;;;4975993;28;20078;-69
2022/03/08 17:44:08;;;;;;;;;;;8.20;43.40;;;;;;4976171;28;20009;-68
2022/03/08 17:46:35;;;;;;;;;;;8.20;43.50;;;;;;4976132;28;20003;-69
2022/03/08 17:49:01;;;;;;;;;;;8.10;44.00;;;;;;4976119;28;20003;-68
2022/03/08 17:51:28;;;;;;;;;;;8.10;43.90;;;;;;4976686;28;20018;-69
2022/03/08 17:53:56;;;;;;;;;;;8.10;43.80;;;;;;4976678;28;20010;-69
2022/03/08 17:56:23;;;;;;;;;;;8.00;43.80;;;;;;4988244;28;20026;-69
2022/03/08 17:58:50;;;;;;;;;;;8.00;44.10;;;;;;4982938;28;20003;-68
2022/03/08 18:01:17;;;;;;;;;;;7.90;44.00;;;;;;4976233;28;20023;-69
2022/03/08 18:03:43;;;;;;;;;;;7.90;44.10;;;;;;4976383;28;20003;-70
2022/03/08 18:06:10;;;;;;;;;;;7.80;44.30;;;;;;4976256;28;20006;-69
2022/03/08 18:08:36;;;;;;;;;;;7.70;44.40;;;;;;4976495;28;20130;-69
2022/03/08 18:11:05;;;;;;;;;;;7.70;44.60;;;;;;4976267;28;20512;-70
2022/03/08 18:13:31;;;;;;;;;;;7.60;44.90;;;;;;4976170;28;20046;-68
2022/03/08 18:15:58;;;;;;;;;;;7.60;44.80;;;;;;4976004;28;20010;-69
2022/03/08 18:18:24;;;;;;;;;;;7.60;45.00;;;;;;4976204;28;20006;-69
2022/03/08 18:20:51;;;;;;;;;;;7.50;45.00;;;;;;4975765;28;20023;-68
2022/03/08 18:23:18;;;;;;;;;;;7.40;45.30;;;;;;4975931;28;20007;-69
2022/03/08 18:25:44;;;;;;;;;;;7.30;45.40;;;;;;4977277;28;20010;-67
2022/03/08 18:28:12;;;;;;;;;;;7.30;45.60;;;;;;4977784;28;20010;-69
2022/03/08 18:30:39;;;;;;;;;;;7.30;45.70;;;;;;4978428;28;20022;-68
2022/03/08 18:33:05;;;;;;;;;;;7.20;45.80;;;;;;4977604;28;20007;-70
2022/03/08 18:35:32;;;;;;;;;;;7.10;46.00;;;;;;4978750;28;20011;-69
2022/03/08 18:37:58;;;;;;;;;;;7.00;46.10;;;;;;4977379;28;20003;-69
2022/03/08 18:40:25;;;;;;;;;;;7.00;46.30;;;;;;4976809;28;20375;-68
2022/03/08 18:42:52;;;;;;;;;;;7.00;46.60;;;;;;4976510;28;20477;-68
2022/03/08 18:45:20;;;;;;;;;;;7.10;46.80;;;;;;4976253;28;20459;-69
2022/03/08 18:47:47;;;;;;;;;;;7.10;46.70;;;;;;4980932;28;20006;-69
2022/03/08 18:50:14;;;;;;;;;;;7.00;46.80;;;;;;4986981;28;20003;-70
2022/03/08 18:52:41;;;;;;;;;;;7.00;47.00;;;;;;4981554;28;20019;-69
2022/03/08 18:55:09;;;;;;;;;;;7.00;47.20;;;;;;4976266;28;20006;-69
2022/03/08 18:57:36;;;;;;;;;;;6.90;47.20;;;;;;4975839;28;20466;-69
2022/03/08 19:00:02;;;;;;;;;;;6.90;47.50;;;;;;4975927;28;20007;-69
2022/03/08 19:02:30;;;;;;;;;;;6.80;47.40;;;;;;4975706;28;20045;-69
2022/03/08 19:04:57;;;;;;;;;;;6.80;47.60;;;;;;4975855;28;20370;-70
2022/03/08 19:07:24;;;;;;;;;;;6.80;47.70;;;;;;4975515;28;20003;-70
2022/03/08 19:09:50;;;;;;;;;;;6.80;48.00;;;;;;4975238;28;20073;-70
2022/03/08 19:12:17;;;;;;;;;;;6.80;48.00;;;;;;4975417;28;20018;-68
2022/03/08 19:14:43;;;;;;;;;;;6.70;47.90;;;;;;4975517;28;20003;-69
2022/03/08 19:17:10;;;;;;;;;;;6.60;48.00;;;;;;4975566;28;20010;-69
2022/03/08 19:19:38;;;;;;;;;;;6.60;48.30;;;;;;4976074;28;20003;-68
2022/03/08 19:22:05;;;;;;;;;;;6.60;48.50;;;;;;4976212;28;20062;-69
2022/03/08 19:24:31;;;;;;;;;;;6.50;48.60;;;;;;4976041;28;20003;-69
2022/03/08 19:26:58;;;;;;;;;;;6.50;48.40;;;;;;4975777;28;20010;-69